• Join FlightAware (Why Join?)
  • Login
  • US Flag 
01:48AM EST


 

Airport Tracker/Info


-or-


 

Live Flight TrackerFlight Track Log ✈ ASA233 ✈ 10-Mar-2014 ✈ KSAN - KSEA

Flight Track Log - Related Links

Times and Time Zones

All times are in EDT time to prevent confusion due to time zone crossing. See the ASA233 flight status page for this flight to view local times or setup timezone preferences in your user account.

Time Position Orientation Groundspeed Altitude Reporting Facility
EDT Latitude Longitude Course Direction KTS MPH feet Rate Location/Type
08:56PM 32.7500 -117.2333 308° West 163 188 1,700  Level Southern California TRACON
08:57PM 32.7833 -117.2833 308° West 227 261 3,400 2,060 Climbing Southern California TRACON
08:58PM 32.8264 -117.3561 305° West 245 282 6,300 2,426 Climbing Los Angeles Center
08:59PM 32.8769 -117.4214 313° West 264 304 9,100 2,371 Climbing Los Angeles Center
09:00PM 32.9289 -117.4922 311° West 277 319 11,200 2,274 Climbing Los Angeles Center
09:01PM 33.0019 -117.5903 312° West 323 372 13,800 2,613 Climbing Los Angeles Center
09:02PM 33.0667 -117.6772 312° West 343 395 16,600 2,468 Climbing Los Angeles Center
09:03PM 33.1322 -117.7689 311° West 358 412 18,900 2,226 Climbing Los Angeles Center
09:04PM 33.2053 -117.8603 314° West 373 429 21,200 2,177 Climbing Los Angeles Center
09:06PM 33.3008 -117.9306 328° Northwest 398 458 23,400 1,839 Climbing Los Angeles Center
09:07PM 33.3956 -118.0056 327° Northwest 405 466 25,000 1,756 Climbing Los Angeles Center
09:08PM 33.5142 -118.0994 327° Northwest 421 484 27,000 1,707 Climbing Los Angeles Center
09:09PM 33.6150 -118.1792 327° Northwest 431 496 28,500 1,403 Climbing Los Angeles Center
09:10PM 33.7239 -118.2653 327° Northwest 440 506 29,900 1,403 Climbing Los Angeles Center
09:11PM 33.8286 -118.3494 326° Northwest 448 516 31,400 1,597 Climbing Los Angeles Center
09:12PM 33.9428 -118.4289 330° Northwest 451 519 33,200 1,500 Climbing Los Angeles Center
09:13PM 34.0686 -118.4564 350° North 457 526 34,500 1,113 Climbing Los Angeles Center
09:14PM 34.1969 -118.4769 352° North 463 533 35,500 919 Climbing Los Angeles Center
09:15PM 34.3231 -118.5064 349° North 463 533 36,400 976 Climbing Los Angeles Center
09:16PM 34.4453 -118.5472 345° North 457 526 37,500 780 Climbing Los Angeles Center
09:17PM 34.5656 -118.5831 346° North 449 517 38,000 242 Climbing Los Angeles Center
09:18PM 34.7114 -118.6278 346° North 450 518 38,000  Level Los Angeles Center
09:19PM 34.8331 -118.6647 346° North 450 518 38,000  Level Los Angeles Center
09:20PM 34.9517 -118.7000 346° North 447 514 38,000  Level Los Angeles Center
09:21PM 35.0722 -118.7361 346° North 448 516 38,000  Level Los Angeles Center
09:22PM 35.1917 -118.7733 346° North 446 513 38,000  Level Los Angeles Center
09:23PM 35.3133 -118.8108 346° North 449 517 38,000  Level Los Angeles Center
09:24PM 35.4578 -118.8564 346° North 449 517 38,000  Level Los Angeles Center
09:25PM 35.5775 -118.8931 346° North 447 514 38,000  Level Los Angeles Center
09:26PM 35.6961 -118.9319 345° North 443 510 38,000  Level Los Angeles Center
09:27PM 35.8139 -118.9686 346° North 441 507 38,000  Level Los Angeles Center
09:28PM 35.9328 -119.0064 346° North 441 507 38,000  Level Los Angeles Center
09:29PM 36.0489 -119.0433 346° North 436 502 38,000  Level Los Angeles Center
09:30PM 36.1906 -119.0875 346° North 436 502 38,000  Level Los Angeles Center
09:31PM 36.3075 -119.1261 345° North 436 502 38,000  Level Los Angeles Center
09:32PM 36.4253 -119.1636 346° North 438 504 38,000  Level Los Angeles Center
09:33PM 36.5425 -119.2017 345° North 438 504 38,000  Level Los Angeles Center
09:34PM 36.6608 -119.2394 346° North 440 506 38,000  Level Los Angeles Center
09:35PM 36.7803 -119.2775 346° North 442 509 38,000  Level Los Angeles Center
09:37PM 36.9458 -119.3294 346° North 444 511 38,000  Level Oakland Center
09:38PM 37.0658 -119.3678 346° North 446 513 38,000  Level Oakland Center
09:39PM 37.1858 -119.4075 345° North 447 514 38,000  Level Oakland Center
09:40PM 37.3053 -119.4461 346° North 446 513 38,000  Level Oakland Center
09:41PM 37.4169 -119.4836 345° North 448 516 38,000  Level Oakland Center
09:42PM 37.5378 -119.5231 345° North 449 517 38,000  Level Oakland Center
09:43PM 37.6822 -119.5697 346° North 445 512 38,000  Level Oakland Center
09:44PM 37.8006 -119.6100 345° North 442 509 38,000  Level Oakland Center
09:45PM 37.9194 -119.6469 346° North 440 506 38,000  Level Oakland Center
09:46PM 38.0383 -119.6864 345° North 443 510 38,000  Level Oakland Center
09:47PM 38.1536 -119.7269 345° North 434 499 38,000  Level Oakland Center
09:48PM 38.2703 -119.7658 345° North 435 501 38,000  Level Oakland Center
09:49PM 38.3867 -119.8044 345° North 432 497 38,000  Level Oakland Center
09:50PM 38.5019 -119.8439 345° North 430 495 38,000  Level Oakland Center
09:51PM 38.6169 -119.8817 346° North 428 493 38,000  Level Oakland Center
09:52PM 38.7589 -119.9303 345° North 436 502 38,000  Level Oakland Center
09:53PM 38.8772 -119.9708 345° North 441 507 38,000  Level Oakland Center
09:54PM 38.9789 -120.0058 345° North 440 506 38,000  Level Oakland Center
09:55PM 39.1186 -120.0531 345° North 433 498 38,000  Level Oakland Center
09:56PM 39.2369 -120.0950 345° North 436 502 38,000  Level Oakland Center
09:57PM 39.3436 -120.1308 345° North 433 498 38,000  Level Oakland Center
09:58PM 39.4586 -120.1717 345° North 431 496 38,000  Level Oakland Center
09:59PM 39.5739 -120.2103 346° North 429 494 38,000  Level Oakland Center
10:00PM 39.6875 -120.2506 345° North 426 490 38,000  Level Oakland Center
10:01PM 39.8031 -120.2919 345° North 429 494 38,000  Level Oakland Center
10:02PM 39.9403 -120.3394 345° North 426 490 38,000  Level Oakland Center
10:03PM 40.0453 -120.3764 345° North 428 493 38,000  Level Oakland Center
10:04PM 40.1603 -120.4172 345° North 427 491 38,000  Level Oakland Center
10:05PM 40.2872 -120.4622 345° North 428 493 38,000  Level Oakland Center
10:06PM 40.4025 -120.5031 345° North 429 494 38,000  Level Oakland Center
10:07PM 40.5164 -120.5436 345° North 427 491 38,000  Level Oakland Center
10:08PM 40.6344 -120.5858 345° North 434 499 38,000  Level Oakland Center
10:09PM 40.7758 -120.6375 345° North 431 496 38,000  Level Seattle Center
10:10PM 40.8906 -120.6775 345° North 430 495 38,000  Level Seattle Center
10:11PM 41.0039 -120.7189 345° North 426 490 38,000  Level Seattle Center
10:12PM 41.1142 -120.7625 343° North 416 479 38,000  Level Seattle Center
10:13PM 41.2297 -120.8028 345° North 428 493 38,000  Level Seattle Center
10:14PM 41.3444 -120.8442 345° North 427 491 38,000  Level Seattle Center
10:15PM 41.4558 -120.8875 344° North 421 484 38,000  Level Seattle Center
10:16PM 41.5692 -120.9286 345° North 424 488 38,000  Level Seattle Center
10:18PM 41.6797 -120.9700 344° North 417 480 38,000  Level Seattle Center
10:19PM 41.7894 -121.0111 344° North 413 475 38,000  Level Seattle Center
10:20PM 41.9211 -121.0600 345° North 413 475 38,000  Level Seattle Center
10:21PM 42.0319 -121.1008 345° North 416 479 38,000  Level Seattle Center
10:22PM 42.1403 -121.1428 344° North 413 475 38,000  Level Seattle Center
10:23PM 42.2497 -121.1842 344° North 417 480 38,000  Level Seattle Center
10:24PM 42.3603 -121.2244 345° North 417 480 38,000  Level Seattle Center
10:25PM 42.4694 -121.2672 344° North 412 474 38,000  Level Seattle Center
10:26PM 42.5800 -121.3089 344° North 414 476 38,000  Level Seattle Center
10:27PM 42.6919 -121.3531 344° North 422 486 38,000  Level Seattle Center
10:28PM 42.8017 -121.3969 344° North 414 476 38,000  Level Seattle Center
10:29PM 42.9125 -121.4392 344° North 414 476 38,000  Level Seattle Center
10:30PM 43.0217 -121.4844 343° North 412 474 38,000  Level Seattle Center
10:31PM 43.1536 -121.5356 344° North 411 473 38,000  Level Seattle Center
10:32PM 43.2639 -121.5781 344° North 411 473 38,000  Level Seattle Center
10:33PM 43.3719 -121.6153 346° North 406 467 38,000  Level Seattle Center
10:34PM 43.4811 -121.6583 344° North 406 467 38,000  Level Seattle Center
10:35PM 43.5897 -121.7017 344° North 407 468 38,000  Level Seattle Center
10:36PM 43.6989 -121.7458 344° North 409 471 38,000  Level Seattle Center
10:37PM 43.8094 -121.7919 343° North 413 475 38,000  Level Seattle Center
10:38PM 43.9136 -121.8331 344° North 420 483 38,000  Level Seattle Center
10:39PM 44.0225 -121.8750 345° North 408 470 38,000  Level Seattle Center
10:40PM 44.1503 -121.9269 344° North 407 468 38,000  Level Seattle Center
10:41PM 44.2603 -121.9700 344° North 410 472 38,000  Level Seattle Center
10:42PM 44.3686 -122.0153 343° North 408 470 38,000  Level Seattle Center
10:43PM 44.4764 -122.0600 344° North 406 467 38,000  Level Seattle Center
10:44PM 44.5836 -122.1028 344° North 404 465 38,000  Level Seattle Center
10:45PM 44.6914 -122.1486 343° North 402 463 38,000  Level Seattle Center
10:46PM 44.8000 -122.1925 344° North 403 464 38,000  Level Seattle Center
10:47PM 44.9158 -122.2414 343° North 401 461 38,000  Level Seattle Center
10:48PM 45.0264 -122.2869 344° North 410 472 38,000  Level Seattle Center
10:49PM 45.1328 -122.3325 343° North 406 467 38,000  Level Seattle Center
10:50PM 45.2411 -122.3767 344° North 407 468 38,000  Level Seattle Center
10:51PM 45.3506 -122.4233 343° North 411 473 38,000  Level Seattle Center
10:52PM 45.4597 -122.4681 344° North 409 471 38,000  Level Seattle Center
10:53PM 45.5675 -122.5128 344° North 407 468 38,000  Level Seattle Center
10:54PM 45.6756 -122.5600 343° North 408 470 38,000  Level Seattle Center
10:55PM 45.7861 -122.6028 345° North 412 474 38,000  Level Seattle Center
10:56PM 45.8983 -122.6294 351° North 413 475 38,000 -393 Level Seattle Center
10:57PM 46.0089 -122.6558 351° North 406 467 37,200 -1,785 Descending Seattle Center
10:58PM 46.1181 -122.6822 350° North 400 460 34,400 -2,926 Descending Seattle Center
10:59PM 46.2383 -122.7036 353° North 385 443 31,300 -2,557 Descending Seattle Center
11:00PM 46.3333 -122.7253 351° North 350 403 29,200 -2,115 Descending Seattle Center
11:01PM 46.4236 -122.7267 359° North 329 379 27,000 -2,311 Descending Seattle Center
11:02PM 46.5119 -122.7236 North 322 371 24,500 -2,231 Descending Seattle Center
11:03PM 46.5986 -122.6867 16° North 324 373 22,500 -1,934 Descending Seattle Center
11:04PM 46.6814 -122.6561 14° North 312 359 20,600 -1,915 Descending Seattle Center
11:05PM 46.7306 -122.6417 11° North 294 338 19,500 -1,770 Descending Seattle Center
11:05PM 46.7594 -122.6269 19° North 295 339 18,800 -1,615 Descending Seattle Center
11:06PM 46.8339 -122.6022 13° North 295 339 17,400 -1,869 Descending Seattle Center
11:06PM 46.8542 -122.5931 17° North 309 356 16,900 -2,204 Descending Seattle Center
11:07PM 46.9025 -122.5750 14° North 298 343 15,600 -1,800 Descending Seattle Center
11:07PM 46.9333 -122.5633 14° North 301 346 15,100 -1,151 Descending Seattle Center
11:08PM 47.0011 -122.5347 16° North 302 348 14,200 -1,180 Descending Seattle Center
11:08PM 47.0139 -122.5283 19° North 304 350 13,900 -1,700 Descending Seattle Center
11:09PM 47.0814 -122.5008 16° North 300 345 12,500 -1,574 Descending Seattle Center
11:09PM 47.0942 -122.4956 16° North 304 350 12,300 -1,527 Descending Seattle Center
11:10PM 47.1575 -122.4856 North 302 348 11,100 -1,279 Descending Seattle Center
11:10PM 47.1764 -122.4817 North 300 345 11,000 -923 Descending Seattle Center
11:11PM 47.2586 -122.4700 North 280 322 9,900 -1,065 Descending Seattle Center
11:11PM 47.2597 -122.4686 40° Northeast 280 322 9,900 -1,300 Level Seattle Center
11:12PM 47.3314 -122.4592 North 263 303 8,600 -1,450 Descending Seattle Center
11:13PM 47.4025 -122.4544 North 257 296 7,000 -1,459 Descending Seattle Center
11:14PM 47.4583 -122.4547 360° North 258 297 5,900 -1,377 Descending Seattle Center
11:14PM 47.4747 -122.4550 359° North 257 296 5,600 -1,475 Descending Seattle Center
11:15PM 47.5350 -122.4589 358° North 257 296 4,400 -1,377 Descending Seattle Center
11:15PM 47.5458 -122.4561 10° North 254 292 4,200 -1,279 Descending Seattle Center
11:16PM 47.6047 -122.4533 North 253 291 3,100 -1,100 Descending Seattle Center
11:16PM 47.6117 -122.4417 49° Northeast 249 287 3,100 -444 Level Seattle Center
11:17PM 47.6147 -122.3786 86° East 228 262 2,700 -590 Descending Seattle Center
11:17PM 47.6086 -122.3525 109° East 224 258 2,500 -492 Descending Seattle Center
11:18PM 47.5750 -122.3186 146° Southeast 190 219 2,200 -393 Descending Seattle Center
11:18PM 47.5636 -122.3181 178° South 197 227 2,100 -493 Descending Seattle Center
11:19PM 47.5217 -122.3183 180° South 156 180 1,600 -492 Descending Seattle Center
11:19PM 47.5183 -122.3178 174° South 166 191 1,600 -778 Level Seattle Center
11:20PM 47.4842 -122.3194 182° South 143 165 900 -900 Descending Seattle Center
11:20PM 47.4744 -122.3181 174° South 150 173 700 -417 Descending Seattle Center
11:21PM 47.4381 -122.3183 180° South 146 168 400 -295 Descending Seattle Center
11:23PM 47.4333 -122.3000 175° South  Level FlightAware Approximate